Time;durP1;ratioP1;P1;durP2;ratioP2;P2;SDS_P1;SDS_P2;PMS_P1;PMS_P2;Temp;Humidity;BMP_temperature;BMP_pressure;BME280_temperature;BME280_humidity;BME280_pressure;Samples;Min_cycle;Max_cycle;Signal;HPM_P1;HPM_P2
2022/05/14 00:00:24;;;;;;;1.85;1.00;;;11.70;99.90;;;;;;5077344;28;20040;-71
2022/05/14 00:02:50;;;;;;;1.77;1.15;;;11.70;99.90;;;;;;5077277;28;20043;-71
2022/05/14 00:05:19;;;;;;;4.10;1.40;;;11.70;99.90;;;;;;5077558;28;20043;-71
2022/05/14 00:07:44;;;;;;;3.70;1.20;;;11.70;99.90;;;;;;5076440;28;20040;-71
2022/05/14 00:10:10;;;;;;;3.13;1.23;;;12.30;99.90;;;;;;5060337;28;20052;-73
2022/05/14 00:15:21;;;;;;;3.20;1.55;;;11.60;99.90;;;;;;5077298;28;20049;-71
2022/05/14 00:17:47;;;;;;;3.00;1.65;;;11.50;99.90;;;;;;5077329;28;20377;-71
2022/05/14 00:20:13;;;;;;;1.98;1.08;;;11.50;99.90;;;;;;5044062;28;20042;-73
2022/05/14 00:22:39;;;;;;;1.67;0.88;;;11.80;99.90;;;;;;5060291;28;20104;-71
2022/05/14 00:25:07;;;;;;;6.25;1.65;;;11.40;99.90;;;;;;5076839;28;20484;-71
2022/05/14 00:27:32;;;;;;;2.80;1.10;;;11.40;99.90;;;;;;5060296;28;20071;-71
2022/05/14 00:29:58;;;;;;;3.50;1.08;;;11.40;99.90;;;;;;5076782;28;20078;-71
2022/05/14 00:32:24;;;;;;;3.22;1.30;;;11.40;99.90;;;;;;5060023;28;20418;-71
2022/05/14 00:34:49;;;;;;;1.10;1.00;;;11.40;99.90;;;;;;5076698;28;20036;-71
2022/05/14 00:37:16;;;;;;;6.50;1.27;;;11.40;99.90;;;;;;5076635;28;20047;-71
2022/05/14 00:39:42;;;;;;;3.95;1.10;;;11.50;99.90;;;;;;5076706;28;20054;-71
2022/05/14 00:42:08;;;;;;;4.35;1.23;;;11.30;99.90;;;;;;5076560;28;20082;-71
2022/05/14 00:44:34;;;;;;;2.22;1.33;;;11.40;99.90;;;;;;5076720;28;20445;-71
2022/05/14 00:47:03;;;;;;;3.28;1.40;;;11.30;99.90;;;;;;5076467;28;20118;-72
2022/05/14 00:49:32;;;;;;;6.88;1.95;;;11.30;99.90;;;;;;5076731;28;20098;-71
2022/05/14 00:51:59;;;;;;;1.10;0.73;;;11.30;99.90;;;;;;5076301;28;20040;-72
2022/05/14 00:54:35;;;;;;;2.60;0.82;;;11.20;99.90;;;;;;5076363;28;20040;-71
2022/05/14 00:57:05;;;;;;;3.25;1.30;;;11.30;99.90;;;;;;5059912;28;20055;-71
2022/05/14 00:59:31;;;;;;;3.70;1.20;;;11.30;99.90;;;;;;5059522;28;20044;-71
2022/05/14 01:01:58;;;;;;;0.93;0.80;;;11.30;99.90;;;;;;5042993;28;20044;-71
2022/05/14 01:04:25;;;;;;;4.68;0.90;;;11.30;99.90;;;;;;5076455;28;20146;-71
2022/05/14 01:07:06;;;;;;;2.03;1.40;;;11.40;99.90;;;;;;5075943;28;20086;-71
2022/05/14 01:09:33;;;;;;;;;;;11.20;99.90;;;;;;5059958;28;20043;-71
2022/05/14 01:11:59;;;;;;;0.80;0.63;;;11.30;99.90;;;;;;5075947;28;19920;-72
2022/05/14 01:14:25;;;;;;;1.02;0.57;;;11.20;99.90;;;;;;5075918;28;20149;-71
2022/05/14 01:16:51;;;;;;;3.75;1.17;;;11.40;99.90;;;;;;5076072;28;20048;-73
2022/05/14 01:19:17;;;;;;;2.50;1.15;;;11.10;99.90;;;;;;5058543;28;20040;-71
2022/05/14 01:22:02;;;;;;;12.50;0.98;;;11.40;99.90;;;;;;5042221;28;20497;-72
2022/05/14 01:27:32;;;;;;;3.05;1.05;;;11.40;99.90;;;;;;5075509;28;20075;-72
2022/05/14 01:29:58;;;;;;;3.55;0.77;;;11.40;99.90;;;;;;5075862;28;20044;-72
2022/05/14 01:32:23;;;;;;;1.65;0.93;;;11.40;99.90;;;;;;5075488;28;20043;-72
2022/05/14 01:34:50;;;;;;;6.63;1.38;;;11.50;99.90;;;;;;5058820;28;20036;-72
2022/05/14 01:37:16;;;;;;;3.95;1.23;;;11.50;99.90;;;;;;5075820;28;20403;-72
2022/05/14 01:39:42;;;;;;;2.30;0.93;;;11.50;99.90;;;;;;5042698;28;20110;-72
2022/05/14 01:42:08;;;;;;;3.20;1.20;;;11.50;99.90;;;;;;5058839;28;20047;-72
2022/05/14 01:44:34;;;;;;;4.57;1.23;;;11.50;99.90;;;;;;5075414;28;20044;-72
2022/05/14 01:47:00;;;;;;;2.40;1.13;;;11.60;99.90;;;;;;5075490;28;20035;-72
2022/05/14 01:49:26;;;;;;;1.48;0.95;;;11.50;99.90;;;;;;5075367;28;20044;-72
2022/05/14 01:51:51;;;;;;;3.60;1.52;;;11.50;99.90;;;;;;5075277;28;20514;-72
2022/05/14 01:54:17;;;;;;;7.82;1.73;;;11.50;99.90;;;;;;5041936;28;20043;-72
2022/05/14 01:56:43;;;;;;;5.53;1.30;;;11.50;99.90;;;;;;5075261;28;20384;-72
2022/05/14 01:59:10;;;;;;;2.80;1.40;;;11.70;99.90;;;;;;5058458;28;20097;-72
2022/05/14 02:01:36;;;;;;;1.60;1.23;;;11.50;99.90;;;;;;5042301;28;20399;-72
2022/05/14 02:04:08;;;;;;;1.00;0.80;;;11.50;99.90;;;;;;5058382;28;20040;-72
2022/05/14 02:06:35;;;;;;;4.57;1.38;;;11.70;99.90;;;;;;5058291;28;20075;-72
2022/05/14 02:09:02;;;;;;;2.20;0.95;;;11.40;99.90;;;;;;5074990;28;20036;-72
2022/05/14 02:11:28;;;;;;;3.28;0.93;;;11.30;99.90;;;;;;5058060;28;20095;-72
2022/05/14 02:13:56;;;;;;;2.22;1.13;;;11.70;99.90;;;;;;5041725;28;20100;-72
2022/05/14 02:16:21;;;;;;;5.30;1.30;;;11.30;99.90;;;;;;5058179;28;20041;-72
2022/05/14 02:18:47;;;;;;;2.47;1.17;;;11.30;99.90;;;;;;5058475;28;20036;-72
2022/05/14 02:21:14;;;;;;;2.63;1.08;;;11.30;99.90;;;;;;5025309;28;20137;-72
2022/05/14 02:23:40;;;;;;;3.20;0.88;;;11.30;99.90;;;;;;5074929;28;20085;-72
2022/05/14 02:26:08;;;;;;;1.88;1.05;;;11.20;99.90;;;;;;5058514;28;20425;-72
2022/05/14 02:28:34;;;;;;;3.75;1.25;;;11.20;99.90;;;;;;5074731;28;20123;-72
2022/05/14 02:31:00;;;;;;;8.55;1.55;;;11.20;99.90;;;;;;5060079;28;20147;-72
2022/05/14 02:33:26;;;;;;;3.58;1.10;;;11.10;99.90;;;;;;5081456;28;20032;-72
2022/05/14 02:35:52;;;;;;;1.52;1.23;;;11.30;99.90;;;;;;5065110;28;20044;-72
2022/05/14 02:38:18;;;;;;;3.97;1.38;;;11.10;99.90;;;;;;5065148;28;20075;-72
2022/05/14 02:40:44;;;;;;;4.05;1.27;;;11.00;99.90;;;;;;5081317;28;20075;-72
2022/05/14 02:43:10;;;;;;;2.00;0.60;;;11.00;99.90;;;;;;5064667;28;20453;-72
2022/05/14 02:45:37;;;;;;;2.85;1.80;;;11.00;99.90;;;;;;5081927;28;20413;-72
2022/05/14 02:48:03;;;;;;;6.00;1.02;;;10.90;99.90;;;;;;5064743;28;20039;-72
2022/05/14 02:50:29;;;;;;;6.43;1.52;;;11.00;99.90;;;;;;5064561;28;20076;-72
2022/05/14 02:52:55;;;;;;;2.35;1.15;;;10.90;99.90;;;;;;5081225;28;20079;-72
2022/05/14 02:55:21;;;;;;;3.97;1.60;;;10.90;99.90;;;;;;5081254;28;20036;-72
2022/05/14 02:57:47;;;;;;;4.90;1.10;;;10.90;99.90;;;;;;5081105;28;20135;-72
2022/05/14 03:00:16;;;;;;;3.88;0.80;;;10.90;99.90;;;;;;5047852;28;20036;-72
2022/05/14 03:02:43;;;;;;;2.50;1.25;;;10.80;99.90;;;;;;5081238;28;20130;-72
2022/05/14 03:05:09;;;;;;;5.75;1.23;;;10.80;99.90;;;;;;5081227;28;20084;-72
2022/05/14 03:07:35;;;;;;;8.73;1.60;;;10.50;99.90;;;;;;5081107;28;20072;-72
2022/05/14 03:10:02;;;;;;;2.72;1.17;;;11.20;99.90;;;;;;5064408;28;20051;-72
2022/05/14 03:12:28;;;;;;;12.18;1.80;;;10.80;99.90;;;;;;5064416;28;20044;-72
2022/05/14 03:14:53;;;;;;;3.33;1.80;;;10.80;99.90;;;;;;5081173;28;20409;-72
2022/05/14 03:17:19;;;;;;;4.55;1.55;;;12.00;99.90;;;;;;5047729;28;20040;-72
2022/05/14 03:19:45;;;;;;;10.45;1.88;;;10.70;99.90;;;;;;5081138;28;20529;-72
2022/05/14 03:22:11;;;;;;;11.25;1.75;;;10.70;99.90;;;;;;5081305;28;20563;-72
2022/05/14 03:24:37;;;;;;;3.72;1.10;;;10.60;99.90;;;;;;5064315;28;20196;-72
2022/05/14 03:27:05;;;;;;;2.72;1.73;;;10.70;99.90;;;;;;5064192;28;20465;-72
2022/05/14 03:29:30;;;;;;;3.88;1.88;;;10.70;99.90;;;;;;5064262;28;20044;-72
2022/05/14 03:31:57;;;;;;;4.10;1.60;;;10.90;99.90;;;;;;5047608;28;20098;-72
2022/05/14 03:34:24;;;;;;;2.22;1.30;;;10.60;99.90;;;;;;5064366;28;20063;-72
2022/05/14 03:36:50;;;;;;;3.83;1.45;;;10.70;99.90;;;;;;5064112;28;20055;-72
2022/05/14 03:39:17;;;;;;;1.90;1.08;;;10.60;99.90;;;;;;5080940;28;20448;-72
2022/05/14 03:41:43;;;;;;;2.13;1.63;;;10.60;99.90;;;;;;5080849;28;20040;-72
2022/05/14 03:44:09;;;;;;;3.97;1.58;;;10.60;99.90;;;;;;5076820;28;20032;-72
2022/05/14 03:46:35;;;;;;;4.43;1.10;;;10.60;99.90;;;;;;5077498;28;20109;-72
2022/05/14 03:49:00;;;;;;;2.20;1.30;;;10.60;99.90;;;;;;5077666;28;20506;-72
2022/05/14 03:51:27;;;;;;;4.57;1.75;;;11.20;99.90;;;;;;5077631;28;20040;-72
2022/05/14 03:53:54;;;;;;;3.70;1.35;;;10.60;99.90;;;;;;5061142;28;20475;-72
2022/05/14 03:56:20;;;;;;;4.25;1.50;;;10.60;99.90;;;;;;5061025;28;20075;-72
2022/05/14 03:58:46;;;;;;;3.67;1.38;;;10.80;99.90;;;;;;5077462;28;20113;-72
2022/05/14 04:01:11;;;;;;;2.38;1.45;;;10.60;99.90;;;;;;5060956;28;20047;-72
2022/05/14 04:03:37;;;;;;;2.67;1.63;;;10.80;99.90;;;;;;5060691;28;20126;-72
2022/05/14 04:06:04;;;;;;;6.10;2.22;;;10.50;99.90;;;;;;5060843;28;20036;-72
2022/05/14 04:08:30;;;;;;;9.40;2.22;;;10.50;99.90;;;;;;5060727;28;20042;-72
2022/05/14 04:10:55;;;;;;;10.80;2.15;;;10.80;99.90;;;;;;5076874;28;20135;-72
2022/05/14 04:13:21;;;;;;;3.17;1.73;;;10.60;99.90;;;;;;5094083;28;20393;-72
2022/05/14 04:15:48;;;;;;;3.60;1.42;;;10.70;99.90;;;;;;5077086;28;20478;-72
2022/05/14 04:18:14;;;;;;;7.63;1.70;;;10.50;99.90;;;;;;5077114;28;20050;-72
2022/05/14 04:20:40;;;;;;;4.70;2.15;;;10.60;99.90;;;;;;5060421;28;20101;-72
2022/05/14 04:23:07;;;;;;;3.15;1.88;;;10.60;99.90;;;;;;5077260;28;20133;-72
2022/05/14 04:25:33;;;;;;;5.65;2.05;;;10.70;99.90;;;;;;5043701;28;20036;-72
2022/05/14 04:27:59;;;;;;;5.97;1.42;;;10.70;99.90;;;;;;5076824;28;20040;-73
2022/05/14 04:30:25;;;;;;;2.88;1.50;;;10.40;99.90;;;;;;5077129;28;20043;-74
2022/05/14 04:32:51;;;;;;;7.78;2.63;;;11.20;99.90;;;;;;5060080;28;20032;-77
2022/05/14 04:35:18;;;;;;;4.68;1.65;;;10.80;99.90;;;;;;5076778;28;20172;-78
2022/05/14 04:37:43;;;;;;;3.22;1.90;;;10.80;99.90;;;;;;5077279;28;20391;-74
2022/05/14 04:40:10;;;;;;;3.22;1.63;;;10.90;99.90;;;;;;5060033;28;20119;-74
2022/05/14 04:42:38;;;;;;;4.47;1.77;;;11.00;99.90;;;;;;5076569;28;20086;-74
2022/05/14 04:45:05;;;;;;;7.85;1.95;;;11.20;99.90;;;;;;5076608;28;20117;-74
2022/05/14 04:47:31;;;;;;;2.28;1.40;;;11.10;99.90;;;;;;5076630;28;20135;-74
2022/05/14 04:49:56;;;;;;;4.60;1.67;;;11.10;99.90;;;;;;5043112;28;20131;-74
2022/05/14 04:52:22;;;;;;;4.72;1.95;;;11.30;99.90;;;;;;5076376;28;20078;-74
2022/05/14 04:54:48;;;;;;;5.47;1.98;;;11.20;99.90;;;;;;5043019;28;20036;-74
2022/05/14 04:57:14;;;;;;;3.72;1.52;;;11.10;99.90;;;;;;5059698;28;20044;-74
2022/05/14 04:59:39;;;;;;;2.08;1.10;;;11.20;99.90;;;;;;5076523;28;20112;-73
2022/05/14 05:04:49;;;;;;;6.32;2.53;;;12.20;99.90;;;;;;5062279;28;20084;-74
2022/05/14 05:07:15;;;;;;;8.98;1.75;;;11.20;99.90;;;;;;5076109;28;20086;-73
2022/05/14 05:09:41;;;;;;;3.97;1.80;;;11.50;99.90;;;;;;5076044;28;20071;-73
2022/05/14 05:12:07;;;;;;;9.30;2.22;;;11.20;99.90;;;;;;5059271;28;20451;-73
2022/05/14 05:14:33;;;;;;;3.53;1.52;;;11.20;99.90;;;;;;5076180;28;20040;-74
2022/05/14 05:16:59;;;;;;;11.00;2.20;;;11.30;99.90;;;;;;5059285;28;20043;-73
2022/05/14 05:19:24;;;;;;;4.82;1.83;;;11.30;99.90;;;;;;5075915;28;20062;-73
2022/05/14 05:21:50;;;;;;;7.00;2.83;;;11.30;99.90;;;;;;5075734;28;20411;-73
2022/05/14 05:24:17;;;;;;;4.15;1.88;;;11.40;99.90;;;;;;5059132;28;20036;-73
2022/05/14 05:26:42;;;;;;;6.00;1.77;;;11.40;99.90;;;;;;5059544;28;20082;-73
2022/05/14 05:29:09;;;;;;;2.95;1.90;;;11.50;99.90;;;;;;5059155;28;20124;-73
2022/05/14 05:31:35;;;;;;;4.03;1.95;;;11.50;99.90;;;;;;5075670;28;20040;-73
2022/05/14 05:34:02;;;;;;;12.63;3.05;;;11.50;99.90;;;;;;5075605;28;20036;-73
2022/05/14 05:36:30;;;;;;;4.65;2.03;;;11.70;99.90;;;;;;5075891;28;20036;-73
2022/05/14 05:38:55;;;;;;;6.25;1.33;;;11.70;99.90;;;;;;5075818;28;20044;-73
2022/05/14 05:41:21;;;;;;;7.47;2.42;;;11.80;99.90;;;;;;5075485;28;20043;-73
2022/05/14 05:43:48;;;;;;;5.35;1.92;;;11.90;99.90;;;;;;5058691;28;20086;-73
2022/05/14 05:46:14;;;;;;;6.55;1.90;;;12.50;99.90;;;;;;5058721;28;20036;-73
2022/05/14 05:48:41;;;;;;;11.32;3.10;;;12.10;99.90;;;;;;5075234;28;20048;-74
2022/05/14 05:51:07;;;;;;;12.65;2.78;;;12.20;99.90;;;;;;5058628;28;20043;-72
2022/05/14 05:59:10;;;;;;;7.22;2.25;;;12.30;99.90;;;;;;5037374;28;20051;-73
2022/05/14 06:01:35;;;;;;;6.43;2.35;;;12.40;99.90;;;;;;5075229;28;20048;-74
2022/05/14 06:04:01;;;;;;;7.40;2.78;;;12.50;99.90;;;;;;5075350;28;20094;-73
2022/05/14 06:06:27;;;;;;;5.05;1.70;;;12.50;99.90;;;;;;5074363;28;20050;-73
2022/05/14 06:08:54;;;;;;;8.10;2.30;;;12.70;99.90;;;;;;5075100;28;20036;-74
2022/05/14 06:11:20;;;;;;;4.90;1.83;;;12.70;99.90;;;;;;5075073;28;20075;-73
2022/05/14 06:13:47;;;;;;;5.72;1.90;;;13.00;99.90;;;;;;5091843;28;20086;-70
2022/05/14 06:16:14;;;;;;;9.13;2.10;;;13.80;99.90;;;;;;5075025;28;20071;-72
2022/05/14 06:18:42;;;;;;;7.00;2.28;;;12.70;99.90;;;;;;5075070;28;20039;-72
2022/05/14 06:21:09;;;;;;;4.72;2.20;;;12.70;99.90;;;;;;5058432;28;20503;-74
2022/05/14 06:23:35;;;;;;;3.50;1.92;;;13.00;99.90;;;;;;5058197;28;20040;-73
2022/05/14 06:26:01;;;;;;;6.30;2.78;;;12.70;99.90;;;;;;5058430;28;20048;-74
2022/05/14 06:28:27;;;;;;;5.43;2.03;;;12.90;99.90;;;;;;5057927;28;20048;-75
2022/05/14 06:30:52;;;;;;;6.97;1.77;;;12.90;99.90;;;;;;5074821;28;20633;-73
2022/05/14 06:33:19;;;;;;;7.78;2.47;;;13.10;99.90;;;;;;5058254;28;20092;-72
2022/05/14 06:35:45;;;;;;;17.17;2.60;;;13.30;99.90;;;;;;5074403;28;20044;-74
2022/05/14 06:38:12;;;;;;;6.68;2.33;;;13.50;99.90;;;;;;5074805;28;20503;-75
2022/05/14 06:40:39;;;;;;;4.68;1.88;;;13.60;99.90;;;;;;5057815;28;20043;-76
2022/05/14 06:43:05;;;;;;;1.90;0.95;;;13.90;99.90;;;;;;5074737;28;20487;-76
2022/05/14 06:45:31;;;;;;;10.75;2.58;;;14.00;99.90;;;;;;5074806;28;20492;-75
2022/05/14 06:47:57;;;;;;;7.35;1.85;;;14.10;99.90;;;;;;5057646;28;20055;-75
2022/05/14 06:50:33;;;;;;;3.95;1.90;;;14.20;99.90;;;;;;5057692;28;20082;-77
2022/05/14 06:53:01;;;;;;;5.95;1.70;;;14.40;99.90;;;;;;5074429;28;20047;-74
2022/05/14 06:55:32;;;;;;;3.97;1.90;;;14.90;99.90;;;;;;5074474;28;20059;-72
2022/05/14 06:57:58;;;;;;;4.72;1.38;;;14.60;99.90;;;;;;5074487;28;20063;-75
2022/05/14 07:00:25;;;;;;;5.03;1.90;;;14.90;99.90;;;;;;5074501;28;20040;-76
2022/05/14 07:02:51;;;;;;;7.18;2.08;;;14.90;99.90;;;;;;5074560;28;20449;-75
2022/05/14 07:08:02;;;;;;;4.03;1.65;;;15.20;99.90;;;;;;5074252;28;20055;-84
2022/05/14 07:10:28;;;;;;;2.50;1.13;;;15.60;99.90;;;;;;5074447;28;20056;-75
2022/05/14 07:12:55;;;;;;;4.22;1.38;;;15.40;99.90;;;;;;5057737;28;20044;-73
2022/05/14 07:15:21;;;;;;;3.00;1.23;;;15.60;99.90;;;;;;5074680;28;20040;-78
2022/05/14 07:17:47;;;;;;;3.70;1.55;;;15.70;99.90;;;;;;5058311;28;20713;-76
2022/05/14 07:20:12;;;;;;;3.22;1.20;;;15.90;99.90;;;;;;5044952;28;20131;-82
2022/05/14 07:22:38;;;;;;;4.65;1.10;;;16.00;99.90;;;;;;5061325;28;20040;-83
2022/05/14 07:25:05;;;;;;;2.95;1.17;;;16.10;99.90;;;;;;5078076;28;20036;-83
2022/05/14 07:27:31;;;;;;;3.53;1.10;;;16.20;99.90;;;;;;5077931;28;20126;-80
2022/05/14 07:29:57;;;;;;;8.15;1.90;;;16.30;99.90;;;;;;5061403;28;20036;-80
2022/05/14 07:32:22;;;;;;;4.55;1.58;;;16.30;99.90;;;;;;5078273;28;20040;-74
2022/05/14 07:34:48;;;;;;;5.80;1.05;;;16.00;99.90;;;;;;5078134;28;20075;-73
2022/05/14 07:37:27;;;;;;;2.47;0.85;;;16.00;99.90;;;;;;5078052;28;20496;-74
2022/05/14 07:40:03;;;;;;;1.30;0.70;;;16.00;99.90;;;;;;5077853;28;20040;-74
2022/05/14 07:42:35;;;;;;;10.38;1.85;;;16.20;99.90;;;;;;5061313;28;20862;-74
2022/05/14 07:45:03;;;;;;;4.65;1.20;;;16.60;99.90;;;;;;5077642;28;20047;-74
2022/05/14 07:47:30;;;;;;;4.57;1.38;;;16.50;99.90;;;;;;5061250;28;20047;-74
2022/05/14 07:49:56;;;;;;;3.55;1.67;;;16.60;99.90;;;;;;5060805;28;20128;-74
2022/05/14 07:52:23;;;;;;;2.95;1.58;;;16.50;99.90;;;;;;5061146;28;20071;-74
2022/05/14 07:54:49;;;;;;;2.85;1.30;;;16.50;99.90;;;;;;5060757;28;20036;-74
2022/05/14 07:57:16;;;;;;;4.07;1.40;;;17.00;99.90;;;;;;5077716;28;20036;-74
2022/05/14 07:59:41;;;;;;;5.10;1.25;;;16.70;99.90;;;;;;5060804;28;20036;-74
2022/05/14 08:02:21;;;;;;;3.22;1.38;;;16.70;99.90;;;;;;5077706;28;20404;-73
2022/05/14 08:04:47;;;;;;;3.10;1.45;;;;;;;;;;5060674;28;20044;-74
2022/05/14 08:07:13;;;;;;;4.90;1.33;;;;;;;;;;5077286;28;20185;-74
2022/05/14 08:09:39;;;;;;;5.97;1.10;;;17.30;99.90;;;;;;5077285;28;20036;-74
2022/05/14 08:12:05;;;;;;;2.90;1.52;;;17.40;99.90;;;;;;5043736;28;20071;-74
2022/05/14 08:14:30;;;;;;;3.35;1.30;;;17.30;99.90;;;;;;5077432;28;20028;-74
2022/05/14 08:16:56;;;;;;;6.30;1.85;;;17.40;99.90;;;;;;5060476;28;20055;-74
2022/05/14 08:19:22;;;;;;;5.47;1.58;;;17.40;99.90;;;;;;5077291;28;20127;-74
2022/05/14 08:24:34;;;;;;;2.65;0.90;;;17.40;99.90;;;;;;5076902;28;20054;-75
2022/05/14 08:27:06;;;;;;;6.80;1.08;;;17.30;99.90;;;;;;5076811;28;20044;-74
2022/05/14 08:29:32;;;;;;;5.57;2.05;;;17.50;99.90;;;;;;5059617;28;20036;-74
2022/05/14 08:31:58;;;;;;;5.13;1.50;;;17.50;99.90;;;;;;5076885;28;20090;-75
2022/05/14 08:34:24;;;;;;;3.90;1.30;;;17.60;99.90;;;;;;5060205;28;20036;-74
2022/05/14 08:36:50;;;;;;;3.78;1.17;;;17.60;99.90;;;;;;5076583;28;20036;-75
2022/05/14 08:39:16;;;;;;;5.10;1.20;;;17.80;99.90;;;;;;5076812;28;20043;-74
2022/05/14 08:41:47;;;;;;;5.28;1.30;;;17.60;99.90;;;;;;5076867;28;20040;-74
2022/05/14 08:44:21;;;;;;;3.72;0.90;;;17.80;99.90;;;;;;5076940;28;20036;-74
2022/05/14 08:46:56;;;;;;;4.72;1.17;;;18.00;99.90;;;;;;5076727;28;20051;-75
2022/05/14 08:49:33;;;;;;;9.30;1.27;;;18.00;99.90;;;;;;5076706;28;20036;-75
2022/05/14 08:52:00;;;;;;;5.70;1.15;;;18.00;99.90;;;;;;5076662;28;20395;-75
2022/05/14 08:54:27;;;;;;;5.38;1.15;;;17.90;99.90;;;;;;5076457;28;20040;-75
2022/05/14 08:57:17;;;;;;;8.80;1.48;;;18.00;99.90;;;;;;5059724;28;20059;-75
2022/05/14 08:59:52;;;;;;;7.43;1.70;;;18.00;99.90;;;;;;5059915;28;20176;-74
2022/05/14 09:02:32;;;;;;;4.57;1.15;;;17.90;99.90;;;;;;5076335;28;20044;-75
2022/05/14 09:05:05;;;;;;;4.22;1.83;;;18.10;99.90;;;;;;5059566;28;20040;-75
2022/05/14 09:07:31;;;;;;;6.63;1.45;;;18.40;99.90;;;;;;5076064;28;20044;-75
2022/05/14 09:09:58;;;;;;;4.30;1.30;;;18.40;99.90;;;;;;5075858;28;20399;-75
2022/05/14 09:12:33;;;;;;;5.18;1.23;;;18.60;99.90;;;;;;5043279;28;20044;-74
2022/05/14 09:15:10;;;;;;;6.80;1.88;;;18.40;99.90;;;;;;5076308;28;20097;-74
2022/05/14 09:17:35;;;;;;;5.18;1.30;;;18.30;99.90;;;;;;5075936;28;20102;-74
2022/05/14 09:20:01;;;;;;;5.03;1.13;;;18.20;99.90;;;;;;5059188;28;20514;-74
2022/05/14 09:22:52;;;;;;;2.58;1.00;;;18.20;99.90;;;;;;5075790;28;20055;-75
2022/05/14 09:25:26;;;;;;;8.65;1.77;;;18.40;99.90;;;;;;5075811;28;20062;-75
2022/05/14 09:28:03;;;;;;;5.53;1.73;;;18.40;99.90;;;;;;5076015;28;20054;-75
2022/05/14 09:30:38;;;;;;;5.65;1.50;;;18.70;99.90;;;;;;5058975;28;20112;-75
2022/05/14 09:33:06;;;;;;;3.42;1.27;;;19.00;99.90;;;;;;5059007;28;20032;-75
2022/05/14 09:35:34;;;;;;;3.20;1.08;;;19.00;99.90;;;;;;5075571;28;20089;-74
2022/05/14 09:38:27;;;;;;;10.35;2.75;;;19.20;99.90;;;;;;5058898;28;20056;-74
2022/05/14 09:40:55;;;;;;;5.85;1.83;;;19.20;99.90;;;;;;5071478;28;20048;-75
2022/05/14 09:43:20;;;;;;;5.90;1.15;;;19.20;99.90;;;;;;5075411;28;20089;-74
2022/05/14 09:46:02;;;;;;;5.90;1.60;;;19.30;99.90;;;;;;5058823;28;20130;-74
2022/05/14 09:48:48;;;;;;;4.45;0.90;;;19.30;99.90;;;;;;5075299;28;20097;-74
2022/05/14 09:51:49;;;;;;;4.00;1.13;;;19.30;99.90;;;;;;5075559;28;20472;-74
2022/05/14 09:54:42;;;;;;;4.00;1.45;;;18.90;99.90;;;;;;5075571;28;20392;-74
2022/05/14 09:57:27;;;;;;;2.40;1.25;;;18.60;99.90;;;;;;5058669;28;20123;-75
2022/05/14 09:59:55;;;;;;;2.13;1.10;;;18.80;99.90;;;;;;5075236;28;20117;-74
2022/05/14 10:02:44;;;;;;;4.25;0.95;;;19.20;99.90;;;;;;5075204;28;20520;-74
2022/05/14 10:05:19;;;;;;;3.38;1.00;;;;;;;;;;5075404;28;20101;-74
2022/05/14 10:07:45;;;;;;;2.47;0.93;;;;;;;;;;5058674;28;20136;-75
2022/05/14 10:10:34;;;;;;;1.67;1.10;;;;;;;;;;5074960;28;20051;-75
2022/05/14 10:13:02;;;;;;;5.80;1.50;;;;;;;;;;5075060;28;20040;-75
2022/05/14 10:15:47;;;;;;;3.50;0.90;;;;;;;;;;5075028;28;20035;-75
2022/05/14 10:18:19;;;;;;;8.82;1.45;;;;;;;;;;5058404;28;20107;-75
2022/05/14 10:20:45;;;;;;;4.28;1.60;;;;;;;;;;5075239;28;20043;-75
2022/05/14 10:26:45;;;;;;;7.47;1.33;;;;;;;;;;5074771;28;20040;-75
2022/05/14 10:29:19;;;;;;;3.35;1.52;;;;;;;;;;5074750;28;20047;-75
2022/05/14 10:31:56;;;;;;;4.65;1.42;;;;;;;;;;5058115;28;20090;-74
2022/05/14 10:34:48;;;;;;;2.63;1.10;;;;;;;;;;5074952;28;20173;-74
2022/05/14 10:37:23;;;;;;;4.55;1.98;;;;;;;;;;5058164;28;20139;-74
2022/05/14 10:39:53;;;;;;;4.68;1.33;;;;;;;;;;5075086;28;20083;-74
2022/05/14 10:42:28;;;;;;;3.50;1.00;;;;;;;;;;5058043;28;20126;-74
2022/05/14 10:44:58;;;;;;;2.50;1.30;;;;;;;;;;5074859;28;20052;-75
2022/05/14 10:47:24;;;;;;;3.90;1.20;;;;;;;;;;5074663;28;20072;-75
2022/05/14 10:49:55;;;;;;;5.25;1.23;;;;;;;;;;5058259;28;20457;-74
2022/05/14 10:52:22;;;;;;;4.47;0.93;;;;;;;;;;5059514;28;20505;-75
2022/05/14 10:54:48;;;;;;;9.48;1.70;;;;;;;;;;5079012;28;20055;-74
2022/05/14 10:57:14;;;;;;;2.60;1.35;;;;;;;;;;5078866;28;20104;-75
2022/05/14 10:59:42;;;;;;;3.33;1.02;;;;;;;;;;5078503;28;20040;-81
2022/05/14 11:02:23;;;;;;;3.92;1.42;;;;;;;;;;5061706;28;20040;-83
2022/05/14 11:04:51;;;;;;;;;;;;;;;;;;5079194;28;20050;-85
2022/05/14 11:07:28;;;;;;;6.65;1.55;;;;;;;;;;5061690;28;19973;-82
2022/05/14 11:09:54;;;;;;;4.22;1.40;;;;;;;;;;5061642;28;20043;-75
2022/05/14 11:12:20;;;;;;;3.95;1.20;;;;;;;;;;5061553;28;20055;-83
2022/05/14 11:14:51;;;;;;;6.47;1.73;;;;;;;;;;5078484;28;20369;-87
2022/05/14 11:17:28;;;;;;;6.65;1.23;;;;;;;;;;5078183;28;20170;-80
2022/05/14 11:20:14;;;;;;;7.00;1.45;;;;;;;;;;5061494;28;20048;-79
2022/05/14 11:22:42;;;;;;;7.68;1.70;;;;;;;;;;5083476;28;20040;-88
2022/05/14 11:25:11;;;;;;;6.13;1.65;;;;;;;;;;5061472;28;20118;-86
2022/05/14 11:27:38;;;;;;;2.88;1.00;;;;;;;;;;5078623;28;20090;-85
2022/05/14 11:30:09;;;;;;;3.05;1.17;;;;;;;;;;5061533;28;20029;-79
2022/05/14 11:32:51;;;;;;;1.45;1.00;;;;;;;;;;5061410;28;20044;-86
2022/05/14 11:35:18;;;;;;;5.80;1.38;;;;;;;;;;5061427;28;20047;-85
2022/05/14 11:37:49;;;;;;;5.43;1.52;;;;;;;;;;5061076;28;20199;-86
2022/05/14 11:40:21;;;;;;;2.80;1.08;;;;;;;;;;5061367;28;20035;-86
2022/05/14 11:42:48;;;;;;;4.93;1.50;;;;;;;;;;5061674;28;20047;-84
2022/05/14 11:45:14;;;;;;;4.18;1.50;;;;;;;;;;5061482;28;20082;-83
2022/05/14 11:47:42;;;;;;;7.47;1.38;;;;;;;;;;5078313;28;20534;-83
2022/05/14 11:50:10;;;;;;;2.03;1.27;;;;;;;;;;5078042;28;20044;-86
2022/05/14 11:52:40;;;;;;;3.58;1.33;;;;;;;;;;5078135;28;20127;-77
2022/05/14 11:55:16;;;;;;;10.13;1.30;;;;;;;;;;5078056;28;20032;-88
2022/05/14 11:57:45;;;;;;;4.78;1.45;;;;;;;;;;5077979;28;20123;-90
2022/05/14 12:00:15;;;;;;;2.75;1.20;;;;;;;;;;5061037;28;20040;-74
2022/05/14 12:02:47;;;;;;;6.72;1.23;;;;;;;;;;5060739;28;20043;-83
2022/05/14 12:05:21;;;;;;;5.25;1.42;;;;;;;;;;5059773;28;20062;-80
2022/05/14 12:08:07;;;;;;;3.53;1.30;;;;;;;;;;5060511;28;20044;-81
2022/05/14 12:10:39;;;;;;;3.83;1.30;;;;;;;;;;5060460;28;20059;-87
2022/05/14 12:13:10;;;;;;;6.63;1.08;;;;;;;;;;5060987;28;20525;-83
2022/05/14 12:15:36;;;;;;;;;;;;;;;;;;5061285;28;20072;-82
2022/05/14 12:18:02;;;;;;;2.95;1.10;;;;;;;;;;5077359;28;19923;-86
2022/05/14 12:20:30;;;;;;;3.78;1.98;;;;;;;;;;5060640;28;20046;-84
2022/05/14 12:23:01;;;;;;;4.38;1.38;;;;;;;;;;5060781;28;20380;-82
2022/05/14 12:25:35;;;;;;;1.75;0.90;;;;;;;;;;5060365;28;20044;-82
2022/05/14 12:28:01;;;;;;;5.45;1.33;;;;;;;;;;5076890;28;20040;-81
2022/05/14 12:33:13;;;;;;;5.72;1.38;;;;;;;;;;5076854;28;20044;-80
2022/05/14 12:35:42;;;;;;;3.60;1.50;;;;;;;;;;5076654;28;20072;-83
2022/05/14 12:38:09;;;;;;;6.03;1.42;;;;;;;;;;5060109;28;20126;-82
2022/05/14 12:40:38;;;;;;;7.30;1.80;;;;;;;;;;5060364;28;20044;-83
2022/05/14 12:43:12;;;;;;;3.38;1.10;;;;;;;;;;5060211;28;20120;-82
2022/05/14 12:45:39;;;;;;;4.00;1.33;;;;;;;;;;5076918;28;20044;-83
2022/05/14 12:48:06;;;;;;;5.28;1.23;;;;;;;;;;5059912;28;20043;-82
2022/05/14 12:50:33;;;;;;;3.22;1.02;;;;;;;;;;5076531;28;20118;-82
2022/05/14 12:53:05;;;;;;;7.18;1.20;;;;;;;;;;5076888;28;20040;-82
2022/05/14 12:55:32;;;;;;;3.45;1.13;;;;;;;;;;5076463;28;20173;-84
2022/05/14 12:58:01;;;;;;;6.38;1.67;;;;;;;;;;5059706;28;20040;-81
2022/05/14 13:00:27;;;;;;;2.80;1.67;;;;;;;;;;5076686;28;20056;-80
2022/05/14 13:02:56;;;;;;;5.90;1.30;;;;;;;;;;5059826;28;20058;-82
2022/05/14 13:05:28;;;;;;;8.50;1.30;;;;;;;;;;5076293;28;20036;-81
2022/05/14 13:08:00;;;;;;;2.53;0.95;;;;;;;;;;5059666;28;20407;-75
2022/05/14 13:10:28;;;;;;;2.35;1.00;;;;;;;;;;5075850;28;20059;-75
2022/05/14 13:12:57;;;;;;;6.20;0.98;;;;;;;;;;5076353;28;20130;-84
2022/05/14 13:15:39;;;;;;;2.63;0.60;;;;;;;;;;5059502;28;20040;-84
2022/05/14 13:18:13;;;;;;;5.75;1.30;;;;;;;;;;5059617;28;20036;-89
2022/05/14 13:20:40;;;;;;;4.60;0.95;;;;;;;;;;5059318;28;20047;-87
2022/05/14 13:23:21;;;;;;;7.47;1.17;;;20.10;92.30;;;;;;5075926;28;20036;-87
2022/05/14 13:26:08;;;;;;;2.88;1.08;;;20.00;93.10;;;;;;5059565;28;20054;-87
2022/05/14 13:28:37;;;;;;;3.20;1.10;;;20.00;92.70;;;;;;5058971;28;20088;-87
2022/05/14 13:31:07;;;;;;;2.55;1.17;;;20.10;94.10;;;;;;5059296;28;20075;-87
2022/05/14 13:33:35;;;;;;;3.22;1.45;;;20.30;93.80;;;;;;5059221;28;20066;-87
2022/05/14 13:39:04;;;;;;;3.45;0.80;;;20.20;92.00;;;;;;5076076;28;20054;-89
2022/05/14 13:41:44;;;;;;;1.85;0.88;;;20.30;93.00;;;;;;5075884;28;20127;-86
2022/05/14 13:44:18;;;;;;;8.07;2.08;;;20.30;92.80;;;;;;5075486;28;20051;-87
2022/05/14 13:46:56;;;;;;;4.15;1.50;;;20.30;93.20;;;;;;5075703;28;20036;-87
2022/05/14 13:49:31;;;;;;;3.67;1.17;;;20.40;93.40;;;;;;5075295;28;20123;-85